sensor_id;sensor_type;location;lat;lon;timestamp;P1;durP1;ratioP1;P2;durP2;ratioP2
14282;SDS011;7225;59.282;18.344;2022-07-30T00:01:55;1.60;;;1.50;;
14282;SDS011;7225;59.282;18.344;2022-07-30T00:04:22;2.90;;;2.23;;
14282;SDS011;7225;59.282;18.344;2022-07-30T00:06:50;2.17;;;1.97;;
14282;SDS011;7225;59.282;18.344;2022-07-30T00:09:19;2.40;;;2.20;;
14282;SDS011;7225;59.282;18.344;2022-07-30T00:11:46;1.87;;;1.60;;
14282;SDS011;7225;59.282;18.344;2022-07-30T00:14:13;1.90;;;1.70;;
14282;SDS011;7225;59.282;18.344;2022-07-30T00:16:41;2.43;;;1.90;;
14282;SDS011;7225;59.282;18.344;2022-07-30T00:19:09;1.40;;;1.10;;
14282;SDS011;7225;59.282;18.344;2022-07-30T00:21:37;1.80;;;1.40;;
14282;SDS011;7225;59.282;18.344;2022-07-30T00:24:05;2.17;;;1.60;;
14282;SDS011;7225;59.282;18.344;2022-07-30T00:26:34;1.77;;;1.50;;
14282;SDS011;7225;59.282;18.344;2022-07-30T00:29:02;1.50;;;1.40;;
14282;SDS011;7225;59.282;18.344;2022-07-30T00:31:31;1.50;;;1.40;;
14282;SDS011;7225;59.282;18.344;2022-07-30T00:33:58;3.73;;;1.33;;
14282;SDS011;7225;59.282;18.344;2022-07-30T00:36:26;1.03;;;0.93;;
14282;SDS011;7225;59.282;18.344;2022-07-30T00:38:54;1.60;;;1.50;;
14282;SDS011;7225;59.282;18.344;2022-07-30T00:41:23;1.23;;;0.93;;
14282;SDS011;7225;59.282;18.344;2022-07-30T00:43:52;1.27;;;0.90;;
14282;SDS011;7225;59.282;18.344;2022-07-30T00:46:19;0.87;;;0.60;;
14282;SDS011;7225;59.282;18.344;2022-07-30T00:48:46;1.43;;;0.90;;
14282;SDS011;7225;59.282;18.344;2022-07-30T00:51:13;0.80;;;0.80;;
14282;SDS011;7225;59.282;18.344;2022-07-30T00:53:41;1.10;;;1.00;;
14282;SDS011;7225;59.282;18.344;2022-07-30T00:56:08;1.07;;;0.90;;
14282;SDS011;7225;59.282;18.344;2022-07-30T00:58:35;2.40;;;1.00;;
14282;SDS011;7225;59.282;18.344;2022-07-30T01:01:03;0.93;;;0.83;;
14282;SDS011;7225;59.282;18.344;2022-07-30T01:03:31;1.53;;;1.00;;
14282;SDS011;7225;59.282;18.344;2022-07-30T01:05:59;0.90;;;0.90;;
14282;SDS011;7225;59.282;18.344;2022-07-30T01:08:26;2.07;;;1.33;;
14282;SDS011;7225;59.282;18.344;2022-07-30T01:10:54;1.67;;;1.37;;
14282;SDS011;7225;59.282;18.344;2022-07-30T01:13:22;1.40;;;0.80;;
14282;SDS011;7225;59.282;18.344;2022-07-30T01:15:50;1.23;;;0.90;;
14282;SDS011;7225;59.282;18.344;2022-07-30T01:18:17;3.13;;;0.90;;
14282;SDS011;7225;59.282;18.344;2022-07-30T01:20:49;1.03;;;0.70;;
14282;SDS011;7225;59.282;18.344;2022-07-30T01:23:38;1.73;;;0.97;;
14282;SDS011;7225;59.282;18.344;2022-07-30T01:26:13;0.80;;;0.80;;
14282;SDS011;7225;59.282;18.344;2022-07-30T01:28:45;2.00;;;0.77;;
14282;SDS011;7225;59.282;18.344;2022-07-30T01:31:17;1.67;;;1.10;;
14282;SDS011;7225;59.282;18.344;2022-07-30T01:33:46;1.03;;;0.80;;
14282;SDS011;7225;59.282;18.344;2022-07-30T01:36:17;1.13;;;0.87;;
14282;SDS011;7225;59.282;18.344;2022-07-30T01:38:47;1.93;;;0.80;;
14282;SDS011;7225;59.282;18.344;2022-07-30T01:41:17;1.00;;;0.73;;
14282;SDS011;7225;59.282;18.344;2022-07-30T01:43:47;1.33;;;0.80;;
14282;SDS011;7225;59.282;18.344;2022-07-30T01:46:14;0.80;;;0.80;;
14282;SDS011;7225;59.282;18.344;2022-07-30T01:48:42;0.70;;;0.70;;
14282;SDS011;7225;59.282;18.344;2022-07-30T01:51:11;0.70;;;0.70;;
14282;SDS011;7225;59.282;18.344;2022-07-30T01:53:39;0.80;;;0.80;;
14282;SDS011;7225;59.282;18.344;2022-07-30T01:56:08;0.87;;;0.60;;
14282;SDS011;7225;59.282;18.344;2022-07-30T01:58:42;0.77;;;0.70;;
14282;SDS011;7225;59.282;18.344;2022-07-30T02:01:12;1.10;;;0.70;;
14282;SDS011;7225;59.282;18.344;2022-07-30T02:03:39;0.70;;;0.57;;
14282;SDS011;7225;59.282;18.344;2022-07-30T02:06:08;1.07;;;0.97;;
14282;SDS011;7225;59.282;18.344;2022-07-30T02:08:47;0.77;;;0.77;;
14282;SDS011;7225;59.282;18.344;2022-07-30T02:11:21;3.00;;;0.80;;
14282;SDS011;7225;59.282;18.344;2022-07-30T02:14:10;1.13;;;0.60;;
14282;SDS011;7225;59.282;18.344;2022-07-30T02:16:44;1.17;;;0.70;;
14282;SDS011;7225;59.282;18.344;2022-07-30T02:19:18;1.03;;;0.60;;
14282;SDS011;7225;59.282;18.344;2022-07-30T02:21:55;2.07;;;0.60;;
14282;SDS011;7225;59.282;18.344;2022-07-30T02:24:33;0.93;;;0.70;;
14282;SDS011;7225;59.282;18.344;2022-07-30T02:27:08;1.30;;;0.70;;
14282;SDS011;7225;59.282;18.344;2022-07-30T02:29:41;1.43;;;0.80;;
14282;SDS011;7225;59.282;18.344;2022-07-30T02:32:11;0.90;;;0.70;;
14282;SDS011;7225;59.282;18.344;2022-07-30T02:34:41;2.23;;;0.70;;
14282;SDS011;7225;59.282;18.344;2022-07-30T02:37:10;1.00;;;0.60;;
14282;SDS011;7225;59.282;18.344;2022-07-30T02:39:41;2.50;;;0.63;;
14282;SDS011;7225;59.282;18.344;2022-07-30T02:42:10;1.60;;;0.70;;
14282;SDS011;7225;59.282;18.344;2022-07-30T02:44:40;0.73;;;0.70;;
14282;SDS011;7225;59.282;18.344;2022-07-30T02:47:10;1.57;;;0.80;;
14282;SDS011;7225;59.282;18.344;2022-07-30T02:49:39;1.53;;;0.77;;
14282;SDS011;7225;59.282;18.344;2022-07-30T02:52:08;1.47;;;0.70;;
14282;SDS011;7225;59.282;18.344;2022-07-30T02:54:40;2.10;;;0.87;;
14282;SDS011;7225;59.282;18.344;2022-07-30T02:57:09;1.13;;;0.50;;
14282;SDS011;7225;59.282;18.344;2022-07-30T02:59:40;1.13;;;0.70;;
14282;SDS011;7225;59.282;18.344;2022-07-30T03:02:10;0.60;;;0.60;;
14282;SDS011;7225;59.282;18.344;2022-07-30T03:04:40;0.60;;;0.60;;
14282;SDS011;7225;59.282;18.344;2022-07-30T03:07:07;0.80;;;0.80;;
14282;SDS011;7225;59.282;18.344;2022-07-30T03:09:37;0.83;;;0.80;;
14282;SDS011;7225;59.282;18.344;2022-07-30T03:12:17;1.13;;;0.90;;
14282;SDS011;7225;59.282;18.344;2022-07-30T03:14:45;1.73;;;0.90;;
14282;SDS011;7225;59.282;18.344;2022-07-30T03:17:13;1.13;;;0.87;;
14282;SDS011;7225;59.282;18.344;2022-07-30T03:19:44;1.30;;;0.73;;
14282;SDS011;7225;59.282;18.344;2022-07-30T03:22:14;1.13;;;0.80;;
14282;SDS011;7225;59.282;18.344;2022-07-30T03:24:43;1.63;;;1.10;;
14282;SDS011;7225;59.282;18.344;2022-07-30T03:27:15;1.20;;;1.10;;
14282;SDS011;7225;59.282;18.344;2022-07-30T03:29:43;1.50;;;1.40;;
14282;SDS011;7225;59.282;18.344;2022-07-30T03:32:13;3.47;;;1.40;;
14282;SDS011;7225;59.282;18.344;2022-07-30T03:34:42;2.17;;;1.10;;
14282;SDS011;7225;59.282;18.344;2022-07-30T03:37:13;1.73;;;1.40;;
14282;SDS011;7225;59.282;18.344;2022-07-30T03:39:40;2.17;;;1.50;;
14282;SDS011;7225;59.282;18.344;2022-07-30T03:42:09;2.77;;;1.40;;
14282;SDS011;7225;59.282;18.344;2022-07-30T03:44:39;2.00;;;1.47;;
14282;SDS011;7225;59.282;18.344;2022-07-30T03:47:07;2.87;;;1.53;;
14282;SDS011;7225;59.282;18.344;2022-07-30T03:49:37;0.93;;;0.93;;
14282;SDS011;7225;59.282;18.344;2022-07-30T03:52:06;1.60;;;1.40;;
14282;SDS011;7225;59.282;18.344;2022-07-30T03:54:34;1.40;;;1.20;;
14282;SDS011;7225;59.282;18.344;2022-07-30T03:57:03;1.43;;;1.00;;
14282;SDS011;7225;59.282;18.344;2022-07-30T03:59:31;1.00;;;0.90;;
14282;SDS011;7225;59.282;18.344;2022-07-30T04:02:00;0.90;;;0.70;;
14282;SDS011;7225;59.282;18.344;2022-07-30T04:04:32;1.30;;;0.70;;
14282;SDS011;7225;59.282;18.344;2022-07-30T04:06:59;0.93;;;0.90;;
14282;SDS011;7225;59.282;18.344;2022-07-30T04:09:27;0.77;;;0.57;;
14282;SDS011;7225;59.282;18.344;2022-07-30T04:11:54;1.20;;;0.60;;
14282;SDS011;7225;59.282;18.344;2022-07-30T04:14:21;1.30;;;0.80;;
14282;SDS011;7225;59.282;18.344;2022-07-30T04:17:02;0.70;;;0.60;;
14282;SDS011;7225;59.282;18.344;2022-07-30T04:19:41;1.13;;;0.60;;
14282;SDS011;7225;59.282;18.344;2022-07-30T04:22:14;2.30;;;1.10;;
14282;SDS011;7225;59.282;18.344;2022-07-30T04:24:47;1.77;;;0.80;;
14282;SDS011;7225;59.282;18.344;2022-07-30T04:27:14;1.20;;;0.83;;
14282;SDS011;7225;59.282;18.344;2022-07-30T04:29:43;2.60;;;1.13;;
14282;SDS011;7225;59.282;18.344;2022-07-30T04:32:12;1.13;;;0.90;;
14282;SDS011;7225;59.282;18.344;2022-07-30T04:34:46;1.73;;;0.80;;
14282;SDS011;7225;59.282;18.344;2022-07-30T04:37:16;1.00;;;0.90;;
14282;SDS011;7225;59.282;18.344;2022-07-30T04:39:45;1.10;;;0.73;;
14282;SDS011;7225;59.282;18.344;2022-07-30T04:42:15;1.00;;;0.90;;
14282;SDS011;7225;59.282;18.344;2022-07-30T04:44:42;0.80;;;0.77;;
14282;SDS011;7225;59.282;18.344;2022-07-30T04:47:10;1.07;;;0.70;;
14282;SDS011;7225;59.282;18.344;2022-07-30T04:49:38;1.60;;;0.60;;
14282;SDS011;7225;59.282;18.344;2022-07-30T04:52:08;1.47;;;0.80;;
14282;SDS011;7225;59.282;18.344;2022-07-30T04:54:42;0.93;;;0.50;;
14282;SDS011;7225;59.282;18.344;2022-07-30T04:57:12;1.07;;;0.50;;
14282;SDS011;7225;59.282;18.344;2022-07-30T04:59:42;3.80;;;0.80;;
14282;SDS011;7225;59.282;18.344;2022-07-30T05:02:11;1.23;;;0.70;;
14282;SDS011;7225;59.282;18.344;2022-07-30T05:04:41;0.80;;;0.80;;
14282;SDS011;7225;59.282;18.344;2022-07-30T05:07:08;0.80;;;0.67;;
14282;SDS011;7225;59.282;18.344;2022-07-30T05:09:40;1.37;;;0.70;;
14282;SDS011;7225;59.282;18.344;2022-07-30T05:12:09;0.90;;;0.73;;
14282;SDS011;7225;59.282;18.344;2022-07-30T05:14:36;0.73;;;0.60;;
14282;SDS011;7225;59.282;18.344;2022-07-30T05:17:04;0.90;;;0.70;;
14282;SDS011;7225;59.282;18.344;2022-07-30T05:19:31;2.50;;;0.80;;
14282;SDS011;7225;59.282;18.344;2022-07-30T05:21:59;1.73;;;0.80;;
14282;SDS011;7225;59.282;18.344;2022-07-30T05:24:32;1.20;;;0.60;;
14282;SDS011;7225;59.282;18.344;2022-07-30T05:27:00;0.80;;;0.80;;
14282;SDS011;7225;59.282;18.344;2022-07-30T05:29:28;0.80;;;0.60;;
14282;SDS011;7225;59.282;18.344;2022-07-30T05:31:55;0.97;;;0.60;;
14282;SDS011;7225;59.282;18.344;2022-07-30T05:34:29;0.80;;;0.70;;
14282;SDS011;7225;59.282;18.344;2022-07-30T05:36:56;0.97;;;0.70;;
14282;SDS011;7225;59.282;18.344;2022-07-30T05:39:24;1.00;;;0.80;;
14282;SDS011;7225;59.282;18.344;2022-07-30T05:41:52;1.17;;;0.80;;
14282;SDS011;7225;59.282;18.344;2022-07-30T05:44:21;1.07;;;0.90;;
14282;SDS011;7225;59.282;18.344;2022-07-30T05:46:49;0.87;;;0.70;;
14282;SDS011;7225;59.282;18.344;2022-07-30T05:49:17;1.60;;;0.60;;
14282;SDS011;7225;59.282;18.344;2022-07-30T05:51:45;2.83;;;0.90;;
14282;SDS011;7225;59.282;18.344;2022-07-30T05:54:16;1.60;;;0.70;;
14282;SDS011;7225;59.282;18.344;2022-07-30T05:56:44;0.70;;;0.70;;
14282;SDS011;7225;59.282;18.344;2022-07-30T05:59:12;0.90;;;0.73;;
14282;SDS011;7225;59.282;18.344;2022-07-30T06:01:40;0.67;;;0.60;;
14282;SDS011;7225;59.282;18.344;2022-07-30T06:04:07;0.70;;;0.70;;
14282;SDS011;7225;59.282;18.344;2022-07-30T06:06:35;1.87;;;0.97;;
14282;SDS011;7225;59.282;18.344;2022-07-30T06:09:02;1.57;;;0.83;;
14282;SDS011;7225;59.282;18.344;2022-07-30T06:11:29;1.00;;;0.60;;
14282;SDS011;7225;59.282;18.344;2022-07-30T06:13:57;1.13;;;0.83;;
14282;SDS011;7225;59.282;18.344;2022-07-30T06:16:25;0.70;;;0.70;;
14282;SDS011;7225;59.282;18.344;2022-07-30T06:18:52;1.27;;;0.67;;
14282;SDS011;7225;59.282;18.344;2022-07-30T06:21:19;2.40;;;0.80;;
14282;SDS011;7225;59.282;18.344;2022-07-30T06:23:47;1.53;;;0.80;;
14282;SDS011;7225;59.282;18.344;2022-07-30T06:26:14;0.80;;;0.60;;
14282;SDS011;7225;59.282;18.344;2022-07-30T06:28:43;1.23;;;0.80;;
14282;SDS011;7225;59.282;18.344;2022-07-30T06:31:11;0.50;;;0.50;;
14282;SDS011;7225;59.282;18.344;2022-07-30T06:33:39;0.80;;;0.60;;
14282;SDS011;7225;59.282;18.344;2022-07-30T06:36:09;1.73;;;0.60;;
14282;SDS011;7225;59.282;18.344;2022-07-30T06:38:40;0.70;;;0.70;;
14282;SDS011;7225;59.282;18.344;2022-07-30T06:41:08;1.37;;;0.70;;
14282;SDS011;7225;59.282;18.344;2022-07-30T06:43:35;0.93;;;0.87;;
14282;SDS011;7225;59.282;18.344;2022-07-30T06:46:03;1.40;;;0.80;;
14282;SDS011;7225;59.282;18.344;2022-07-30T06:48:30;1.90;;;1.00;;
14282;SDS011;7225;59.282;18.344;2022-07-30T06:50:58;1.37;;;1.03;;
14282;SDS011;7225;59.282;18.344;2022-07-30T06:53:26;1.43;;;0.90;;
14282;SDS011;7225;59.282;18.344;2022-07-30T06:55:53;1.83;;;0.93;;
14282;SDS011;7225;59.282;18.344;2022-07-30T06:58:27;0.60;;;0.60;;
14282;SDS011;7225;59.282;18.344;2022-07-30T07:00:55;1.60;;;1.07;;
14282;SDS011;7225;59.282;18.344;2022-07-30T07:03:23;0.70;;;0.70;;
14282;SDS011;7225;59.282;18.344;2022-07-30T07:06:06;0.83;;;0.70;;
14282;SDS011;7225;59.282;18.344;2022-07-30T07:08:36;2.00;;;1.13;;
14282;SDS011;7225;59.282;18.344;2022-07-30T07:11:05;1.20;;;0.70;;
14282;SDS011;7225;59.282;18.344;2022-07-30T07:13:33;1.63;;;0.73;;
14282;SDS011;7225;59.282;18.344;2022-07-30T07:16:01;4.60;;;1.10;;
14282;SDS011;7225;59.282;18.344;2022-07-30T07:18:30;1.30;;;0.90;;
14282;SDS011;7225;59.282;18.344;2022-07-30T07:20:58;0.97;;;0.70;;
14282;SDS011;7225;59.282;18.344;2022-07-30T07:23:25;2.17;;;0.73;;
14282;SDS011;7225;59.282;18.344;2022-07-30T07:26:09;1.00;;;0.80;;
14282;SDS011;7225;59.282;18.344;2022-07-30T07:28:38;1.17;;;0.67;;
14282;SDS011;7225;59.282;18.344;2022-07-30T07:31:08;1.30;;;0.67;;
14282;SDS011;7225;59.282;18.344;2022-07-30T07:33:37;1.00;;;0.70;;
14282;SDS011;7225;59.282;18.344;2022-07-30T07:36:06;0.93;;;0.60;;
14282;SDS011;7225;59.282;18.344;2022-07-30T07:38:34;0.77;;;0.77;;
14282;SDS011;7225;59.282;18.344;2022-07-30T07:41:02;1.00;;;0.80;;
14282;SDS011;7225;59.282;18.344;2022-07-30T07:43:31;0.53;;;0.53;;
14282;SDS011;7225;59.282;18.344;2022-07-30T07:45:58;0.75;;;0.55;;
14282;SDS011;7225;59.282;18.344;2022-07-30T07:48:26;0.70;;;0.70;;
14282;SDS011;7225;59.282;18.344;2022-07-30T07:50:53;0.82;;;0.70;;
14282;SDS011;7225;59.282;18.344;2022-07-30T07:53:26;0.68;;;0.60;;
14282;SDS011;7225;59.282;18.344;2022-07-30T07:55:53;0.80;;;0.80;;
14282;SDS011;7225;59.282;18.344;2022-07-30T07:58:23;0.60;;;0.60;;
14282;SDS011;7225;59.282;18.344;2022-07-30T08:00:52;5.57;;;0.98;;
14282;SDS011;7225;59.282;18.344;2022-07-30T08:03:20;0.68;;;0.68;;
14282;SDS011;7225;59.282;18.344;2022-07-30T08:05:48;1.37;;;0.60;;
14282;SDS011;7225;59.282;18.344;2022-07-30T08:08:31;0.83;;;0.73;;
14282;SDS011;7225;59.282;18.344;2022-07-30T08:10:58;1.27;;;0.70;;
14282;SDS011;7225;59.282;18.344;2022-07-30T08:13:25;1.87;;;0.70;;
14282;SDS011;7225;59.282;18.344;2022-07-30T08:16:13;0.83;;;0.70;;
14282;SDS011;7225;59.282;18.344;2022-07-30T08:18:40;2.13;;;0.90;;
14282;SDS011;7225;59.282;18.344;2022-07-30T08:21:09;1.00;;;0.85;;
14282;SDS011;7225;59.282;18.344;2022-07-30T08:23:36;1.27;;;0.70;;
14282;SDS011;7225;59.282;18.344;2022-07-30T08:26:08;1.50;;;0.80;;
14282;SDS011;7225;59.282;18.344;2022-07-30T08:28:37;1.00;;;0.90;;
14282;SDS011;7225;59.282;18.344;2022-07-30T08:31:05;0.60;;;0.60;;
14282;SDS011;7225;59.282;18.344;2022-07-30T08:33:32;0.90;;;0.70;;
14282;SDS011;7225;59.282;18.344;2022-07-30T08:36:00;1.13;;;0.90;;
14282;SDS011;7225;59.282;18.344;2022-07-30T08:38:35;0.90;;;0.60;;
14282;SDS011;7225;59.282;18.344;2022-07-30T08:41:03;2.85;;;0.93;;
14282;SDS011;7225;59.282;18.344;2022-07-30T08:43:31;0.50;;;0.50;;
14282;SDS011;7225;59.282;18.344;2022-07-30T08:46:03;1.23;;;0.63;;
14282;SDS011;7225;59.282;18.344;2022-07-30T08:48:35;1.00;;;0.80;;
14282;SDS011;7225;59.282;18.344;2022-07-30T08:51:04;2.03;;;1.35;;
14282;SDS011;7225;59.282;18.344;2022-07-30T08:53:32;1.13;;;0.80;;
14282;SDS011;7225;59.282;18.344;2022-07-30T08:56:02;0.45;;;0.45;;
14282;SDS011;7225;59.282;18.344;2022-07-30T08:58:32;1.50;;;1.02;;
14282;SDS011;7225;59.282;18.344;2022-07-30T09:01:05;1.98;;;0.70;;
14282;SDS011;7225;59.282;18.344;2022-07-30T09:03:33;0.57;;;0.50;;
14282;SDS011;7225;59.282;18.344;2022-07-30T09:06:03;1.15;;;0.60;;
14282;SDS011;7225;59.282;18.344;2022-07-30T09:08:32;1.02;;;0.68;;
14282;SDS011;7225;59.282;18.344;2022-07-30T09:10:59;0.63;;;0.50;;
14282;SDS011;7225;59.282;18.344;2022-07-30T09:13:31;1.05;;;0.55;;
14282;SDS011;7225;59.282;18.344;2022-07-30T09:16:05;0.45;;;0.45;;
14282;SDS011;7225;59.282;18.344;2022-07-30T09:18:36;0.88;;;0.43;;
14282;SDS011;7225;59.282;18.344;2022-07-30T09:21:17;0.60;;;0.50;;
14282;SDS011;7225;59.282;18.344;2022-07-30T09:23:59;1.45;;;0.70;;
14282;SDS011;7225;59.282;18.344;2022-07-30T09:29:27;0.50;;;0.50;;
14282;SDS011;7225;59.282;18.344;2022-07-30T09:31:59;0.82;;;0.57;;
14282;SDS011;7225;59.282;18.344;2022-07-30T09:34:31;0.40;;;0.38;;
14282;SDS011;7225;59.282;18.344;2022-07-30T09:39:37;0.63;;;0.63;;
14282;SDS011;7225;59.282;18.344;2022-07-30T09:42:16;2.50;;;0.60;;
14282;SDS011;7225;59.282;18.344;2022-07-30T09:44:47;2.25;;;0.98;;
14282;SDS011;7225;59.282;18.344;2022-07-30T09:47:31;0.55;;;0.55;;
14282;SDS011;7225;59.282;18.344;2022-07-30T09:53:06;2.05;;;0.80;;
14282;SDS011;7225;59.282;18.344;2022-07-30T09:55:38;1.92;;;0.70;;
14282;SDS011;7225;59.282;18.344;2022-07-30T09:58:38;0.88;;;0.70;;
14282;SDS011;7225;59.282;18.344;2022-07-30T10:01:12;0.47;;;0.47;;
14282;SDS011;7225;59.282;18.344;2022-07-30T10:03:41;0.47;;;0.47;;
14282;SDS011;7225;59.282;18.344;2022-07-30T10:06:12;1.63;;;0.70;;
14282;SDS011;7225;59.282;18.344;2022-07-30T10:08:44;0.90;;;0.70;;
14282;SDS011;7225;59.282;18.344;2022-07-30T10:11:17;1.00;;;0.80;;
14282;SDS011;7225;59.282;18.344;2022-07-30T10:13:53;0.80;;;0.60;;
14282;SDS011;7225;59.282;18.344;2022-07-30T10:16:25;0.90;;;0.60;;
14282;SDS011;7225;59.282;18.344;2022-07-30T10:18:56;0.50;;;0.50;;
14282;SDS011;7225;59.282;18.344;2022-07-30T10:21:28;1.08;;;0.50;;
14282;SDS011;7225;59.282;18.344;2022-07-30T10:23:59;1.92;;;0.65;;
14282;SDS011;7225;59.282;18.344;2022-07-30T10:26:30;0.70;;;0.70;;
14282;SDS011;7225;59.282;18.344;2022-07-30T10:29:01;1.52;;;0.50;;
14282;SDS011;7225;59.282;18.344;2022-07-30T10:31:32;2.38;;;0.73;;
14282;SDS011;7225;59.282;18.344;2022-07-30T10:34:21;1.67;;;0.60;;
14282;SDS011;7225;59.282;18.344;2022-07-30T10:36:54;0.60;;;0.60;;
14282;SDS011;7225;59.282;18.344;2022-07-30T10:39:33;0.90;;;0.60;;
14282;SDS011;7225;59.282;18.344;2022-07-30T10:45:19;0.90;;;0.63;;
14282;SDS011;7225;59.282;18.344;2022-07-30T10:47:50;0.93;;;0.80;;
14282;SDS011;7225;59.282;18.344;2022-07-30T10:50:21;1.10;;;0.70;;
14282;SDS011;7225;59.282;18.344;2022-07-30T10:52:56;1.83;;;0.70;;
14282;SDS011;7225;59.282;18.344;2022-07-30T10:55:29;0.77;;;0.77;;
14282;SDS011;7225;59.282;18.344;2022-07-30T10:58:09;1.10;;;0.80;;
14282;SDS011;7225;59.282;18.344;2022-07-30T11:03:20;0.77;;;0.57;;
14282;SDS011;7225;59.282;18.344;2022-07-30T11:08:43;0.60;;;0.60;;
14282;SDS011;7225;59.282;18.344;2022-07-30T11:14:07;0.77;;;0.70;;
14282;SDS011;7225;59.282;18.344;2022-07-30T11:19:09;2.28;;;0.80;;
14282;SDS011;7225;59.282;18.344;2022-07-30T11:24:49;0.98;;;0.70;;
14282;SDS011;7225;59.282;18.344;2022-07-30T11:32:48;0.73;;;0.73;;
14282;SDS011;7225;59.282;18.344;2022-07-30T11:35:21;0.52;;;0.50;;
14282;SDS011;7225;59.282;18.344;2022-07-30T11:40:38;0.93;;;0.60;;
14282;SDS011;7225;59.282;18.344;2022-07-30T11:43:27;0.55;;;0.55;;
14282;SDS011;7225;59.282;18.344;2022-07-30T11:46:11;0.63;;;0.60;;
14282;SDS011;7225;59.282;18.344;2022-07-30T11:48:55;0.65;;;0.50;;
14282;SDS011;7225;59.282;18.344;2022-07-30T11:51:23;1.50;;;0.60;;
14282;SDS011;7225;59.282;18.344;2022-07-30T11:54:03;0.90;;;0.70;;
14282;SDS011;7225;59.282;18.344;2022-07-30T11:56:33;1.45;;;0.63;;
14282;SDS011;7225;59.282;18.344;2022-07-30T11:59:00;0.68;;;0.68;;
14282;SDS011;7225;59.282;18.344;2022-07-30T12:01:33;2.05;;;0.70;;
14282;SDS011;7225;59.282;18.344;2022-07-30T12:04:02;0.82;;;0.60;;
14282;SDS011;7225;59.282;18.344;2022-07-30T12:06:31;0.82;;;0.60;;
14282;SDS011;7225;59.282;18.344;2022-07-30T12:08:59;0.55;;;0.50;;
14282;SDS011;7225;59.282;18.344;2022-07-30T12:11:34;1.15;;;0.80;;
14282;SDS011;7225;59.282;18.344;2022-07-30T12:14:03;1.35;;;0.70;;
14282;SDS011;7225;59.282;18.344;2022-07-30T12:16:31;1.45;;;0.73;;
14282;SDS011;7225;59.282;18.344;2022-07-30T12:19:01;1.38;;;0.57;;
14282;SDS011;7225;59.282;18.344;2022-07-30T12:21:35;1.10;;;0.88;;
14282;SDS011;7225;59.282;18.344;2022-07-30T12:24:04;0.73;;;0.70;;
14282;SDS011;7225;59.282;18.344;2022-07-30T12:26:39;2.40;;;1.50;;
14282;SDS011;7225;59.282;18.344;2022-07-30T12:29:09;0.82;;;0.63;;
14282;SDS011;7225;59.282;18.344;2022-07-30T12:31:40;0.70;;;0.70;;
14282;SDS011;7225;59.282;18.344;2022-07-30T12:34:21;0.68;;;0.60;;
14282;SDS011;7225;59.282;18.344;2022-07-30T12:36:49;1.15;;;0.85;;
14282;SDS011;7225;59.282;18.344;2022-07-30T12:39:26;1.00;;;0.80;;
14282;SDS011;7225;59.282;18.344;2022-07-30T12:41:54;0.95;;;0.80;;
14282;SDS011;7225;59.282;18.344;2022-07-30T12:44:38;1.50;;;0.82;;
14282;SDS011;7225;59.282;18.344;2022-07-30T12:49:52;1.23;;;0.90;;
14282;SDS011;7225;59.282;18.344;2022-07-30T12:52:31;2.30;;;0.90;;
14282;SDS011;7225;59.282;18.344;2022-07-30T12:55:04;0.65;;;0.65;;
14282;SDS011;7225;59.282;18.344;2022-07-30T13:03:25;0.77;;;0.70;;
14282;SDS011;7225;59.282;18.344;2022-07-30T13:05:54;1.55;;;0.90;;
14282;SDS011;7225;59.282;18.344;2022-07-30T13:11:16;0.80;;;0.60;;
14282;SDS011;7225;59.282;18.344;2022-07-30T13:13:48;2.00;;;1.02;;
14282;SDS011;7225;59.282;18.344;2022-07-30T13:16:17;0.63;;;0.60;;
14282;SDS011;7225;59.282;18.344;2022-07-30T13:18:47;0.98;;;0.68;;
14282;SDS011;7225;59.282;18.344;2022-07-30T13:21:14;2.50;;;0.75;;
14282;SDS011;7225;59.282;18.344;2022-07-30T13:23:42;0.93;;;0.70;;
14282;SDS011;7225;59.282;18.344;2022-07-30T13:26:11;0.80;;;0.77;;
14282;SDS011;7225;59.282;18.344;2022-07-30T13:28:39;2.63;;;1.15;;
14282;SDS011;7225;59.282;18.344;2022-07-30T13:31:08;1.05;;;0.60;;
14282;SDS011;7225;59.282;18.344;2022-07-30T13:33:36;1.35;;;0.90;;
14282;SDS011;7225;59.282;18.344;2022-07-30T13:36:05;3.00;;;1.08;;
14282;SDS011;7225;59.282;18.344;2022-07-30T13:38:34;1.30;;;0.80;;
14282;SDS011;7225;59.282;18.344;2022-07-30T13:41:03;1.00;;;0.80;;
14282;SDS011;7225;59.282;18.344;2022-07-30T13:43:30;0.80;;;0.65;;
14282;SDS011;7225;59.282;18.344;2022-07-30T13:46:00;1.15;;;0.90;;
14282;SDS011;7225;59.282;18.344;2022-07-30T13:48:29;1.83;;;0.88;;
14282;SDS011;7225;59.282;18.344;2022-07-30T13:50:59;1.73;;;0.80;;
14282;SDS011;7225;59.282;18.344;2022-07-30T13:53:27;1.15;;;0.70;;
14282;SDS011;7225;59.282;18.344;2022-07-30T13:55:56;1.80;;;0.98;;
14282;SDS011;7225;59.282;18.344;2022-07-30T13:58:26;1.80;;;0.80;;
14282;SDS011;7225;59.282;18.344;2022-07-30T14:00:53;1.25;;;0.93;;
14282;SDS011;7225;59.282;18.344;2022-07-30T14:03:21;2.20;;;1.13;;
14282;SDS011;7225;59.282;18.344;2022-07-30T14:05:49;3.60;;;1.70;;
14282;SDS011;7225;59.282;18.344;2022-07-30T14:08:19;2.25;;;0.65;;
14282;SDS011;7225;59.282;18.344;2022-07-30T14:10:48;1.42;;;0.80;;
14282;SDS011;7225;59.282;18.344;2022-07-30T14:13:16;1.33;;;0.98;;
14282;SDS011;7225;59.282;18.344;2022-07-30T14:15:46;1.05;;;0.75;;
14282;SDS011;7225;59.282;18.344;2022-07-30T14:18:15;0.68;;;0.65;;
14282;SDS011;7225;59.282;18.344;2022-07-30T14:20:42;2.95;;;1.05;;
14282;SDS011;7225;59.282;18.344;2022-07-30T14:23:15;3.95;;;0.70;;
14282;SDS011;7225;59.282;18.344;2022-07-30T14:25:43;1.23;;;0.80;;
14282;SDS011;7225;59.282;18.344;2022-07-30T14:28:12;1.65;;;0.90;;
14282;SDS011;7225;59.282;18.344;2022-07-30T14:30:41;1.23;;;0.65;;
14282;SDS011;7225;59.282;18.344;2022-07-30T14:33:09;0.73;;;0.60;;
14282;SDS011;7225;59.282;18.344;2022-07-30T14:35:37;1.40;;;0.68;;
14282;SDS011;7225;59.282;18.344;2022-07-30T14:38:05;0.80;;;0.60;;
14282;SDS011;7225;59.282;18.344;2022-07-30T14:40:32;0.55;;;0.43;;
14282;SDS011;7225;59.282;18.344;2022-07-30T14:43:00;0.50;;;0.50;;
14282;SDS011;7225;59.282;18.344;2022-07-30T14:45:28;3.33;;;0.60;;
14282;SDS011;7225;59.282;18.344;2022-07-30T14:47:56;0.68;;;0.65;;
14282;SDS011;7225;59.282;18.344;2022-07-30T14:50:25;1.92;;;0.65;;
14282;SDS011;7225;59.282;18.344;2022-07-30T14:52:53;0.60;;;0.60;;
14282;SDS011;7225;59.282;18.344;2022-07-30T14:55:21;0.40;;;0.40;;
14282;SDS011;7225;59.282;18.344;2022-07-30T14:57:50;0.63;;;0.50;;
14282;SDS011;7225;59.282;18.344;2022-07-30T15:00:17;1.58;;;0.55;;
14282;SDS011;7225;59.282;18.344;2022-07-30T15:02:47;0.88;;;0.43;;
14282;SDS011;7225;59.282;18.344;2022-07-30T15:05:16;0.57;;;0.57;;
14282;SDS011;7225;59.282;18.344;2022-07-30T15:07:45;0.70;;;0.60;;
14282;SDS011;7225;59.282;18.344;2022-07-30T15:10:13;0.43;;;0.40;;
14282;SDS011;7225;59.282;18.344;2022-07-30T15:12:42;0.65;;;0.40;;
14282;SDS011;7225;59.282;18.344;2022-07-30T15:15:11;0.70;;;0.50;;
14282;SDS011;7225;59.282;18.344;2022-07-30T15:17:40;0.88;;;0.68;;
14282;SDS011;7225;59.282;18.344;2022-07-30T15:20:09;0.70;;;0.50;;
14282;SDS011;7225;59.282;18.344;2022-07-30T15:22:38;4.50;;;0.80;;
14282;SDS011;7225;59.282;18.344;2022-07-30T15:25:07;1.42;;;0.47;;
14282;SDS011;7225;59.282;18.344;2022-07-30T15:27:37;0.85;;;0.60;;
14282;SDS011;7225;59.282;18.344;2022-07-30T15:30:05;1.55;;;0.50;;
14282;SDS011;7225;59.282;18.344;2022-07-30T15:32:35;0.85;;;0.63;;
14282;SDS011;7225;59.282;18.344;2022-07-30T15:35:04;0.70;;;0.50;;
14282;SDS011;7225;59.282;18.344;2022-07-30T15:37:40;0.43;;;0.40;;
14282;SDS011;7225;59.282;18.344;2022-07-30T15:40:08;1.02;;;0.80;;
14282;SDS011;7225;59.282;18.344;2022-07-30T15:42:36;0.68;;;0.60;;
14282;SDS011;7225;59.282;18.344;2022-07-30T15:45:05;0.68;;;0.52;;
14282;SDS011;7225;59.282;18.344;2022-07-30T15:47:42;0.73;;;0.50;;
14282;SDS011;7225;59.282;18.344;2022-07-30T15:50:10;1.08;;;0.68;;
14282;SDS011;7225;59.282;18.344;2022-07-30T15:52:39;0.70;;;0.68;;